Berwick, Illinois
Current Conditions -  °F | °C
As of 6:35 AM on Saturday 25 Oct 2014 (Local Time) from KGBG Reporting Station
Moderate Fog Moderate Fog  
Wind Chill: 51°   Ceiling: 200
Heat Index: 51°   Visibility: 0.25mi
Dew Point: 51°   Wind: 3mph
Humidity: 99%   Direction: 260°W
Pressure: 29.97"   Gusts: NA
Location:  40.8°N, 90.54°W
Report Text: KGBG 251135Z AUTO 26003KT 1/4SM FG OVC002 11/11 A2997 RMK AO2 T01080107
Loading
Personal Weather Stations






























Interactive Weather Map New forecast layout! Learn more

10-Day Weather Forecast

Advertisements
Track Severe Weather on mobile